createdAt,value
2024-01-03T00:06:44.725Z,73
2024-01-03T00:16:44.860Z,71
2024-01-03T00:26:45.055Z,71
2024-01-03T00:36:51.328Z,71
2024-01-03T00:46:51.517Z,72
2024-01-03T00:56:45.679Z,74
2024-01-03T01:06:45.810Z,75
2024-01-03T01:16:46.003Z,76
2024-01-03T01:36:46.433Z,77
2024-01-03T01:46:46.558Z,77
2024-01-03T01:56:46.855Z,78
2024-01-03T02:06:46.945Z,79
2024-01-03T02:16:47.145Z,80
2024-01-03T02:36:47.533Z,87
2024-01-03T02:46:47.758Z,86
2024-01-03T02:56:47.983Z,85
2024-01-03T03:07:00.414Z,84
2024-01-03T03:26:48.505Z,89
2024-01-03T03:36:48.684Z,87
2024-01-03T03:46:48.883Z,86
2024-01-03T03:56:49.101Z,84
2024-01-03T04:06:49.392Z,84
2024-01-03T04:16:49.469Z,84
2024-01-03T04:26:49.705Z,83
2024-01-03T04:36:55.954Z,86
2024-01-03T04:46:50.028Z,88
2024-01-03T04:56:50.299Z,88
2024-01-03T05:06:50.461Z,88
2024-01-03T05:16:50.614Z,87
2024-01-03T05:36:51.063Z,84
2024-01-03T05:46:51.226Z,83
2024-01-03T05:56:51.404Z,83
2024-01-03T06:06:51.723Z,83
2024-01-03T06:26:51.994Z,83
2024-01-03T06:36:52.183Z,84
2024-01-03T06:46:52.352Z,85
2024-01-03T07:06:52.798Z,86
2024-01-03T07:16:52.928Z,88
2024-01-03T07:26:53.154Z,89
2024-01-03T07:36:53.291Z,90
2024-01-03T07:46:53.502Z,92
2024-01-03T07:56:53.736Z,92
2024-01-03T08:16:54.097Z,93
2024-01-03T08:26:54.292Z,92
2024-01-03T08:36:54.500Z,90
2024-01-03T08:47:00.766Z,91
2024-01-03T08:56:55.022Z,90
2024-01-03T09:16:55.246Z,91
2024-01-03T09:26:55.454Z,91
2024-01-03T09:36:55.624Z,91
2024-01-03T09:46:55.823Z,90
2024-01-03T09:56:56.053Z,90
2024-01-03T10:16:56.410Z,91
2024-01-03T10:26:56.689Z,91
2024-01-03T10:46:57.014Z,88
2024-01-03T10:56:57.233Z,85
2024-01-03T11:06:57.418Z,84
2024-01-03T11:16:57.556Z,83
2024-01-03T11:26:57.927Z,82
2024-01-03T11:36:57.935Z,82
2024-01-03T11:46:58.159Z,81
2024-01-03T11:56:58.502Z,81
2024-01-03T12:16:58.692Z,81
2024-01-03T12:36:59.096Z,84
2024-01-03T12:46:59.339Z,86
2024-01-03T13:16:59.908Z,84
2024-01-03T13:37:00.330Z,83
2024-01-03T13:47:00.452Z,82
2024-01-03T13:57:06.790Z,81
2024-01-03T14:07:01.021Z,81
2024-01-03T14:17:01.022Z,82
2024-01-03T14:27:01.239Z,83
2024-01-03T14:37:01.383Z,83
2024-01-03T14:47:01.591Z,83
2024-01-03T15:17:02.183Z,83
2024-01-03T15:27:02.424Z,83
2024-01-03T15:37:02.540Z,83
2024-01-03T15:47:02.760Z,83
2024-01-03T15:57:03.042Z,84
2024-01-03T16:07:03.138Z,84
2024-01-03T16:17:03.322Z,84
2024-01-03T16:27:03.698Z,83
2024-01-03T16:37:04.047Z,82
2024-01-03T17:07:04.306Z,83
2024-01-03T17:27:10.818Z,84
2024-01-03T17:47:05.056Z,85
2024-01-03T18:17:05.644Z,88
2024-01-03T18:47:06.227Z,90
2024-01-03T18:57:06.425Z,89
2024-01-03T19:07:06.609Z,88
2024-01-03T19:27:07.030Z,88
2024-01-03T19:37:07.234Z,88
2024-01-03T19:57:07.566Z,87
2024-01-03T20:07:07.794Z,87
2024-01-03T20:17:07.980Z,87
2024-01-03T20:27:08.197Z,87
2024-01-03T20:37:08.363Z,87
2024-01-03T20:47:08.557Z,88
2024-01-03T20:57:08.792Z,88
2024-01-03T21:07:08.927Z,89
2024-01-03T21:17:09.192Z,90
2024-01-03T21:27:42.946Z,90
2024-01-03T21:37:09.512Z,90
2024-01-03T21:47:09.689Z,90
2024-01-03T21:57:09.953Z,89
2024-01-03T22:07:10.114Z,88
2024-01-03T22:17:10.283Z,88
2024-01-03T22:27:10.515Z,88
2024-01-03T22:37:10.684Z,88
2024-01-03T22:47:10.849Z,88
2024-01-03T23:07:12.891Z,88
2024-01-03T23:57:12.265Z,89
